createdAt,value
2022-08-25T00:02:16.642Z,47.82
2022-08-25T00:04:45.496Z,47.79
2022-08-25T00:07:21.204Z,47.89
2022-08-25T00:09:48.468Z,47.83
2022-08-25T00:12:15.861Z,47.97
2022-08-25T00:14:43.538Z,47.85
2022-08-25T00:17:10.989Z,47.77
2022-08-25T00:19:39.070Z,47.84
2022-08-25T00:22:07.813Z,47.87
2022-08-25T00:24:35.210Z,47.83
2022-08-25T00:27:02.792Z,47.93
2022-08-25T00:29:31.358Z,47.80
2022-08-25T00:31:59.429Z,47.86
2022-08-25T00:34:34.404Z,47.66
2022-08-25T00:37:04.673Z,47.90
2022-08-25T00:39:32.115Z,47.68
2022-08-25T00:42:00.089Z,47.62
2022-08-25T00:44:30.071Z,47.75
2022-08-25T00:47:01.107Z,47.70
2022-08-25T00:49:44.854Z,47.72
2022-08-25T00:52:25.741Z,47.76
2022-08-25T00:55:07.786Z,47.51
2022-08-25T00:57:45.984Z,47.75
2022-08-25T01:00:20.215Z,47.89
2022-08-25T01:02:47.665Z,47.76
2022-08-25T01:05:15.125Z,47.88
2022-08-25T01:07:44.755Z,47.87
2022-08-25T01:10:13.791Z,47.70
2022-08-25T01:12:41.793Z,47.88
2022-08-25T01:15:11.542Z,47.76
2022-08-25T01:17:53.350Z,47.55
2022-08-25T01:20:29.456Z,47.73
2022-08-25T01:22:58.129Z,47.70
2022-08-25T01:25:34.987Z,47.58
2022-08-25T01:28:02.534Z,47.88
2022-08-25T01:30:30.054Z,47.78
2022-08-25T01:32:57.910Z,47.74
2022-08-25T01:35:25.186Z,47.72
2022-08-25T01:37:52.523Z,47.75
2022-08-25T01:40:20.463Z,48.07
2022-08-25T01:43:00.270Z,47.63
2022-08-25T01:45:28.890Z,47.58
2022-08-25T01:47:56.885Z,47.45
2022-08-25T01:50:24.894Z,47.51
2022-08-25T01:53:07.986Z,47.46
2022-08-25T01:55:51.797Z,47.71
2022-08-25T01:58:27.580Z,47.62
2022-08-25T02:00:57.647Z,47.66
2022-08-25T02:03:25.777Z,47.58
2022-08-25T02:05:54.090Z,47.62
2022-08-25T02:08:23.226Z,47.61
2022-08-25T02:10:52.365Z,47.57
2022-08-25T02:13:20.873Z,47.74
2022-08-25T02:15:56.675Z,47.49
2022-08-25T02:18:24.372Z,47.55
2022-08-25T02:20:51.841Z,48.00
2022-08-25T02:23:19.205Z,47.69
2022-08-25T02:25:47.504Z,47.64
2022-08-25T02:28:14.996Z,47.71
2022-08-25T02:30:43.105Z,47.88
2022-08-25T02:33:11.218Z,47.97
2022-08-25T02:35:38.648Z,47.71
2022-08-25T02:38:06.772Z,47.83
2022-08-25T02:40:34.559Z,47.83
2022-08-25T02:43:02.249Z,48.06
2022-08-25T02:45:29.862Z,47.91
2022-08-25T02:47:57.349Z,48.00
2022-08-25T02:50:26.276Z,48.10
2022-08-25T02:52:53.625Z,48.40
2022-08-25T02:55:21.681Z,48.44
2022-08-25T02:57:49.002Z,48.43
2022-08-25T03:00:17.715Z,48.56
2022-08-25T03:02:47.320Z,48.59
2022-08-25T03:05:15.506Z,48.68
2022-08-25T03:07:42.995Z,48.52
2022-08-25T03:10:16.053Z,48.70
2022-08-25T03:12:43.369Z,48.68
2022-08-25T03:15:13.165Z,48.59
2022-08-25T03:17:41.215Z,48.50
2022-08-25T03:20:13.390Z,48.62
2022-08-25T03:22:40.879Z,48.32
2022-08-25T03:25:28.197Z,48.15
2022-08-25T03:27:56.045Z,48.29
2022-08-25T03:30:23.427Z,48.32
2022-08-25T03:32:50.729Z,48.64
2022-08-25T03:35:18.600Z,48.25
2022-08-25T03:37:46.021Z,48.13
2022-08-25T03:40:16.550Z,48.30
2022-08-25T03:42:45.577Z,48.31
2022-08-25T03:45:16.576Z,48.24
2022-08-25T03:47:48.193Z,48.33
2022-08-25T03:50:18.766Z,48.39
2022-08-25T03:52:51.541Z,48.66
2022-08-25T03:55:18.990Z,48.34
2022-08-25T03:57:46.467Z,48.62
2022-08-25T04:00:14.155Z,48.33
2022-08-25T04:02:41.873Z,48.19
2022-08-25T04:05:10.058Z,48.26
2022-08-25T04:07:38.037Z,48.36
2022-08-25T04:10:10.672Z,48.56
2022-08-25T04:12:38.632Z,48.30
2022-08-25T04:15:10.387Z,48.23
2022-08-25T04:17:39.834Z,48.39
2022-08-25T04:20:10.460Z,48.02
2022-08-25T04:22:41.548Z,48.02
2022-08-25T04:25:13.669Z,47.90
2022-08-25T04:27:41.274Z,48.15
2022-08-25T04:30:09.984Z,48.25
2022-08-25T04:32:37.703Z,48.57
2022-08-25T04:35:05.630Z,48.38
2022-08-25T04:37:33.471Z,48.64
2022-08-25T04:40:00.976Z,48.35
2022-08-25T04:42:28.603Z,48.37
2022-08-25T04:44:56.027Z,48.17
2022-08-25T04:47:23.586Z,48.09
2022-08-25T04:53:44.109Z,47.94
2022-08-25T04:56:14.779Z,47.95
2022-08-25T04:58:42.696Z,47.94
2022-08-25T05:01:13.539Z,47.83
2022-08-25T05:03:41.804Z,47.62
2022-08-25T05:06:12.814Z,47.73
2022-08-25T05:08:42.852Z,47.96
2022-08-25T05:11:15.056Z,47.68
2022-08-25T05:13:50.062Z,47.55
2022-08-25T05:16:21.291Z,47.69
2022-08-25T05:18:49.618Z,47.32
2022-08-25T05:21:21.845Z,47.32
2022-08-25T05:23:49.774Z,47.34
2022-08-25T05:26:21.253Z,47.20
2022-08-25T05:28:52.117Z,47.32
2022-08-25T05:31:21.021Z,47.16
2022-08-25T05:33:48.758Z,47.51
2022-08-25T05:36:18.126Z,47.37
2022-08-25T05:38:45.713Z,47.47
2022-08-25T05:41:22.491Z,47.59
2022-08-25T05:43:50.091Z,47.14
2022-08-25T05:46:19.875Z,47.22
2022-08-25T05:48:49.010Z,47.37
2022-08-25T05:51:17.434Z,47.30
2022-08-25T05:53:48.324Z,47.33
2022-08-25T05:56:16.180Z,47.48
2022-08-25T06:02:48.387Z,47.54
2022-08-25T06:05:19.924Z,48.24
2022-08-25T06:07:49.476Z,47.77
2022-08-25T06:10:18.116Z,47.68
2022-08-25T06:12:46.314Z,47.79
2022-08-25T06:15:16.289Z,48.01
2022-08-25T06:17:44.533Z,47.92
2022-08-25T06:20:27.827Z,47.88
2022-08-25T06:22:55.221Z,48.01
2022-08-25T06:25:24.865Z,48.08
2022-08-25T06:27:53.388Z,48.04
2022-08-25T06:30:24.518Z,48.12
2022-08-25T06:32:57.002Z,48.35
2022-08-25T06:39:18.177Z,48.16
2022-08-25T06:41:45.536Z,48.21
2022-08-25T06:44:12.900Z,48.52
2022-08-25T06:46:40.347Z,48.84
2022-08-25T06:49:08.254Z,48.97
2022-08-25T06:51:37.123Z,49.08
2022-08-25T06:54:06.664Z,49.19
2022-08-25T06:56:34.280Z,49.57
2022-08-25T06:59:06.004Z,48.92
2022-08-25T07:01:34.332Z,49.05
2022-08-25T07:04:07.642Z,49.20
2022-08-25T07:06:37.894Z,49.52
2022-08-25T07:12:08.867Z,49.30
2022-08-25T07:14:37.056Z,49.58
2022-08-25T07:17:10.500Z,49.45
2022-08-25T07:19:41.008Z,50.06
2022-08-25T07:22:09.365Z,49.81
2022-08-25T07:24:36.979Z,49.28
2022-08-25T07:27:05.362Z,49.07
2022-08-25T07:29:34.188Z,49.23
2022-08-25T07:32:02.744Z,49.01
2022-08-25T07:34:52.274Z,48.93
2022-08-25T07:37:47.144Z,48.92
2022-08-25T07:40:12.394Z,48.97
2022-08-25T07:42:39.856Z,48.89
2022-08-25T07:45:10.978Z,48.71
2022-08-25T07:47:39.272Z,48.88
2022-08-25T07:50:09.171Z,48.81
2022-08-25T07:52:36.562Z,48.61
2022-08-25T07:55:08.411Z,48.31
2022-08-25T07:57:42.559Z,48.19
2022-08-25T08:00:13.897Z,48.06
2022-08-25T08:02:42.335Z,47.91
2022-08-25T08:05:10.974Z,48.27
2022-08-25T08:07:43.122Z,48.22
2022-08-25T08:10:47.815Z,48.19
2022-08-25T08:13:02.722Z,48.16
2022-08-25T08:15:30.450Z,48.08
2022-08-25T08:19:09.806Z,48.02
2022-08-25T08:21:37.211Z,48.17
2022-08-25T08:24:14.790Z,47.63
2022-08-25T08:26:58.525Z,47.53
2022-08-25T08:29:26.993Z,48.11
2022-08-25T08:31:54.469Z,47.67
2022-08-25T08:34:24.997Z,47.01
2022-08-25T08:36:53.608Z,46.62
2022-08-25T08:39:21.013Z,46.56
2022-08-25T08:42:16.803Z,46.70
2022-08-25T08:44:48.092Z,46.85
2022-08-25T08:47:27.593Z,47.15
2022-08-25T08:50:10.107Z,47.27
2022-08-25T08:53:38.899Z,47.34
2022-08-25T08:56:12.403Z,47.69
2022-08-25T08:58:50.206Z,47.53
2022-08-25T09:01:44.813Z,47.56
2022-08-25T09:04:24.602Z,47.34
2022-08-25T09:06:52.521Z,47.52
2022-08-25T09:09:35.692Z,47.52
2022-08-25T09:12:20.249Z,47.67
2022-08-25T09:15:13.004Z,47.85
2022-08-25T09:17:59.610Z,47.88
2022-08-25T09:20:46.829Z,47.73
2022-08-25T09:23:34.000Z,48.00
2022-08-25T09:30:00.813Z,48.16
2022-08-25T09:32:39.951Z,48.13
2022-08-25T09:35:15.058Z,48.29
2022-08-25T09:37:42.501Z,47.92
2022-08-25T09:40:12.160Z,48.00
2022-08-25T09:42:51.197Z,48.29
2022-08-25T09:46:00.384Z,48.34
2022-08-25T09:48:39.802Z,48.16
2022-08-25T09:51:38.030Z,48.29
2022-08-25T09:54:13.123Z,48.36
2022-08-25T09:56:52.319Z,48.37
2022-08-25T09:59:39.929Z,48.16
2022-08-25T10:02:28.669Z,48.46
2022-08-25T10:05:28.101Z,48.32
2022-08-25T10:08:04.101Z,48.56
2022-08-25T10:10:42.450Z,48.68
2022-08-25T10:13:22.580Z,48.91
2022-08-25T10:16:18.053Z,48.92
2022-08-25T10:19:08.495Z,48.89
2022-08-25T10:21:38.792Z,49.16
2022-08-25T10:24:09.103Z,48.72
2022-08-25T10:26:54.242Z,48.50
2022-08-25T10:29:42.565Z,47.97
2022-08-25T10:32:23.356Z,48.29
2022-08-25T10:38:57.743Z,47.76
2022-08-25T10:41:42.887Z,47.92
2022-08-25T10:44:51.153Z,48.20
2022-08-25T10:47:40.091Z,48.22
2022-08-25T10:50:26.586Z,48.49
2022-08-25T10:53:13.384Z,48.06
2022-08-25T10:55:55.608Z,47.93
2022-08-25T10:59:04.837Z,48.21
2022-08-25T11:01:57.048Z,48.17
2022-08-25T11:05:01.973Z,48.35
2022-08-25T11:07:44.455Z,48.44
2022-08-25T11:10:45.594Z,48.75
2022-08-25T11:13:31.594Z,48.39
2022-08-25T11:16:19.464Z,48.42
2022-08-25T11:19:10.865Z,48.68
2022-08-25T11:22:05.315Z,48.55
2022-08-25T11:24:36.231Z,48.84
2022-08-25T11:27:18.421Z,48.60
2022-08-25T11:30:06.050Z,49.06
2022-08-25T11:32:36.979Z,48.64
2022-08-25T11:35:08.584Z,48.77
2022-08-25T11:38:00.473Z,48.98
2022-08-25T11:40:55.762Z,49.30
2022-08-25T11:44:03.822Z,49.51
2022-08-25T11:47:00.729Z,49.27
2022-08-25T11:49:31.646Z,49.28
2022-08-25T11:52:02.921Z,49.07
2022-08-25T11:54:41.687Z,49.24
2022-08-25T11:57:19.710Z,49.59
2022-08-25T11:59:50.021Z,49.60
2022-08-25T12:02:47.768Z,49.58
2022-08-25T12:05:24.309Z,49.55
2022-08-25T12:08:14.704Z,49.45
2022-08-25T12:11:11.374Z,49.60
2022-08-25T12:13:44.054Z,49.14
2022-08-25T12:16:36.332Z,49.24
2022-08-25T12:19:31.640Z,49.12
2022-08-25T12:22:27.060Z,49.42
2022-08-25T12:25:18.234Z,49.57
2022-08-25T12:28:04.963Z,49.38
2022-08-25T12:31:07.319Z,49.52
2022-08-25T12:33:53.222Z,49.58
2022-08-25T12:36:33.249Z,49.46
2022-08-25T12:39:31.577Z,49.54
2022-08-25T12:42:03.591Z,49.01
2022-08-25T12:44:42.379Z,48.71
2022-08-25T12:47:12.458Z,48.83
2022-08-25T12:52:38.380Z,48.81
2022-08-25T12:55:11.663Z,48.96
2022-08-25T12:57:57.931Z,49.20
2022-08-25T13:00:52.663Z,49.25
2022-08-25T13:06:32.157Z,49.40
2022-08-25T13:09:15.040Z,49.21
2022-08-25T13:11:49.662Z,49.03
2022-08-25T13:14:38.503Z,49.20
2022-08-25T13:17:09.471Z,49.43
2022-08-25T13:19:56.421Z,49.08
2022-08-25T13:22:24.202Z,49.24
2022-08-25T13:24:52.189Z,48.25
2022-08-25T13:27:27.464Z,48.21
2022-08-25T13:29:58.308Z,47.26
2022-08-25T13:32:35.461Z,47.81
2022-08-25T13:35:23.958Z,47.81
2022-08-25T13:37:54.042Z,47.75
2022-08-25T13:40:29.835Z,48.00
2022-08-25T13:43:08.544Z,48.35
2022-08-25T13:45:41.210Z,48.39
2022-08-25T13:48:21.241Z,48.62
2022-08-25T13:50:52.680Z,48.58
2022-08-25T13:53:26.326Z,48.40
2022-08-25T13:55:58.303Z,48.68
2022-08-25T13:58:39.033Z,48.29
2022-08-25T14:01:48.336Z,48.73
2022-08-25T14:04:23.265Z,48.63
2022-08-25T14:07:20.302Z,48.39
2022-08-25T14:09:52.227Z,48.47
2022-08-25T14:12:30.530Z,48.79
2022-08-25T14:15:13.755Z,48.60
2022-08-25T14:20:28.949Z,49.14
2022-08-25T14:23:04.273Z,48.89
2022-08-25T14:25:35.476Z,48.72
2022-08-25T14:28:07.378Z,48.75
2022-08-25T14:30:36.555Z,48.64
2022-08-25T14:33:05.087Z,48.61
2022-08-25T14:35:34.801Z,48.77
2022-08-25T14:38:09.267Z,49.06
2022-08-25T14:40:37.340Z,48.88
2022-08-25T14:43:06.253Z,48.16
2022-08-25T14:45:41.075Z,47.83
2022-08-25T14:48:10.988Z,47.94
2022-08-25T14:50:41.182Z,47.82
2022-08-25T14:53:11.816Z,47.81
2022-08-25T14:55:39.840Z,47.52
2022-08-25T14:58:08.106Z,47.52
2022-08-25T15:00:41.356Z,47.83
2022-08-25T15:03:13.697Z,47.72
2022-08-25T15:05:42.149Z,48.10
2022-08-25T15:08:33.139Z,47.75
2022-08-25T15:11:00.907Z,48.29
2022-08-25T15:13:28.384Z,47.98
2022-08-25T15:15:58.166Z,48.27
2022-08-25T15:18:26.010Z,48.65
2022-08-25T15:20:53.468Z,48.24
2022-08-25T15:23:21.257Z,48.42
2022-08-25T15:25:52.973Z,48.29
2022-08-25T15:28:22.365Z,48.74
2022-08-25T15:30:50.809Z,48.53
2022-08-25T15:33:18.870Z,48.62
2022-08-25T15:35:46.511Z,48.57
2022-08-25T15:38:17.428Z,48.45
2022-08-25T15:40:44.804Z,48.64
2022-08-25T15:43:13.733Z,48.58
2022-08-25T15:45:41.165Z,48.45
2022-08-25T15:48:09.801Z,48.43
2022-08-25T15:50:38.652Z,48.07
2022-08-25T15:53:08.388Z,48.09
2022-08-25T15:55:40.314Z,48.42
2022-08-25T15:58:08.762Z,47.40
2022-08-25T16:00:37.853Z,47.84
2022-08-25T16:03:07.980Z,47.86
2022-08-25T16:05:37.504Z,46.84
2022-08-25T16:08:09.387Z,47.45
2022-08-25T16:10:47.585Z,47.36
2022-08-25T16:13:15.186Z,47.32
2022-08-25T16:15:47.277Z,46.69
2022-08-25T16:18:21.948Z,47.09
2022-08-25T16:20:49.965Z,47.20
2022-08-25T16:23:19.229Z,47.01
2022-08-25T16:25:47.983Z,47.11
2022-08-25T16:28:17.497Z,47.50
2022-08-25T16:30:52.792Z,47.34
2022-08-25T16:33:20.595Z,47.38
2022-08-25T16:35:49.169Z,47.46
2022-08-25T16:38:17.881Z,47.57
2022-08-25T16:40:46.010Z,47.58
2022-08-25T16:43:13.521Z,47.92
2022-08-25T16:45:41.048Z,47.71
2022-08-25T16:48:08.694Z,47.54
2022-08-25T16:50:39.299Z,48.32
2022-08-25T16:53:25.150Z,48.62
2022-08-25T16:56:03.945Z,48.52
2022-08-25T16:58:33.216Z,48.34
2022-08-25T17:01:09.576Z,48.23
2022-08-25T17:03:38.537Z,47.75
2022-08-25T17:06:11.385Z,48.67
2022-08-25T17:08:39.845Z,48.55
2022-08-25T17:11:09.620Z,48.64
2022-08-25T17:13:39.202Z,48.38
2022-08-25T17:16:14.554Z,48.62
2022-08-25T17:18:43.186Z,48.95
2022-08-25T17:21:22.008Z,49.52
2022-08-25T17:23:53.245Z,49.67
2022-08-25T17:26:28.090Z,49.69
2022-08-25T17:29:00.867Z,49.81
2022-08-25T17:31:29.950Z,50.00
2022-08-25T17:33:58.677Z,50.16
2022-08-25T17:36:27.039Z,50.09
2022-08-25T17:38:56.952Z,49.79
2022-08-25T17:41:24.618Z,49.69
2022-08-25T17:43:52.058Z,50.05
2022-08-25T17:46:19.374Z,50.15
2022-08-25T17:48:46.924Z,50.16
2022-08-25T17:51:15.957Z,49.90
2022-08-25T17:53:44.257Z,50.24
2022-08-25T17:56:15.420Z,49.99
2022-08-25T17:58:44.057Z,50.13
2022-08-25T18:01:20.497Z,50.38
2022-08-25T18:03:50.035Z,50.42
2022-08-25T18:06:18.065Z,50.38
2022-08-25T18:08:51.253Z,50.22
2022-08-25T18:11:21.016Z,50.31
2022-08-25T18:13:50.465Z,50.08
2022-08-25T18:16:18.545Z,49.94
2022-08-25T18:18:45.956Z,50.18
2022-08-25T18:21:16.497Z,49.79
2022-08-25T18:23:45.217Z,49.64
2022-08-25T18:26:15.343Z,49.43
2022-08-25T18:28:44.016Z,49.79
2022-08-25T18:31:13.148Z,49.71
2022-08-25T18:33:44.570Z,49.86
2022-08-25T18:36:12.922Z,50.29
2022-08-25T18:39:00.088Z,49.80
2022-08-25T18:41:34.869Z,49.83
2022-08-25T18:44:02.614Z,49.76
2022-08-25T18:46:30.512Z,50.05
2022-08-25T18:48:57.895Z,49.92
2022-08-25T18:51:25.233Z,50.04
2022-08-25T18:53:58.998Z,50.16
2022-08-25T18:56:26.745Z,50.67
2022-08-25T18:58:54.002Z,50.20
2022-08-25T19:01:21.717Z,50.59
2022-08-25T19:03:50.334Z,50.58
2022-08-25T19:06:19.169Z,51.00
2022-08-25T19:08:47.230Z,51.39
2022-08-25T19:11:16.035Z,51.05
2022-08-25T19:13:43.936Z,51.23
2022-08-25T19:16:17.784Z,50.93
2022-08-25T19:18:50.113Z,51.22
2022-08-25T19:21:23.549Z,51.16
2022-08-25T19:23:51.518Z,51.31
2022-08-25T19:26:21.034Z,51.47
2022-08-25T19:28:49.920Z,51.31
2022-08-25T19:31:22.750Z,51.95
2022-08-25T19:33:52.029Z,51.86
2022-08-25T19:36:23.179Z,51.86
2022-08-25T19:38:52.666Z,51.79
2022-08-25T19:41:21.330Z,51.88
2022-08-25T19:43:56.469Z,52.13
2022-08-25T19:46:32.728Z,51.62
2022-08-25T19:49:09.100Z,51.83
2022-08-25T19:51:38.977Z,51.74
2022-08-25T19:54:08.994Z,51.44
2022-08-25T19:56:43.957Z,51.52
2022-08-25T19:59:40.618Z,51.61
2022-08-25T20:02:15.751Z,51.64
2022-08-25T20:04:49.755Z,51.73
2022-08-25T20:07:21.152Z,51.68
2022-08-25T20:09:49.783Z,51.49
2022-08-25T20:12:17.909Z,51.77
2022-08-25T20:14:45.436Z,52.04
2022-08-25T20:17:23.065Z,52.08
2022-08-25T20:19:57.567Z,51.58
2022-08-25T20:22:28.053Z,51.77
2022-08-25T20:25:13.448Z,51.98
2022-08-25T20:27:49.070Z,52.16
2022-08-25T20:30:22.234Z,52.19
2022-08-25T20:32:51.077Z,52.84
2022-08-25T20:35:19.061Z,52.72
2022-08-25T20:37:48.715Z,52.83
2022-08-25T20:40:25.423Z,53.20
2022-08-25T20:42:54.952Z,53.46
2022-08-25T20:45:23.071Z,53.43
2022-08-25T20:47:50.710Z,53.40
2022-08-25T20:50:18.607Z,53.31
2022-08-25T20:52:46.133Z,53.63
2022-08-25T20:55:17.611Z,53.65
2022-08-25T20:57:46.778Z,53.60
2022-08-25T21:00:16.454Z,53.27
2022-08-25T21:02:46.305Z,52.98
2022-08-25T21:05:14.998Z,53.30
2022-08-25T21:07:42.874Z,53.44
2022-08-25T21:10:14.454Z,53.61
2022-08-25T21:12:42.983Z,53.47
2022-08-25T21:15:12.091Z,53.76
2022-08-25T21:17:39.507Z,53.90
2022-08-25T21:20:08.750Z,53.85
2022-08-25T21:22:37.821Z,54.08
2022-08-25T21:25:06.178Z,54.30
2022-08-25T21:27:34.132Z,54.53
2022-08-25T21:30:01.597Z,54.54
2022-08-25T21:32:28.966Z,55.10
2022-08-25T21:34:56.852Z,55.15
2022-08-25T21:37:26.857Z,55.04
2022-08-25T21:39:54.720Z,55.23
2022-08-25T21:42:24.062Z,55.18
2022-08-25T21:44:54.591Z,55.27
2022-08-25T21:47:23.253Z,55.18
2022-08-25T21:49:50.918Z,54.81
2022-08-25T21:52:18.793Z,55.45
2022-08-25T21:54:46.169Z,55.67
2022-08-25T21:57:13.803Z,54.85
2022-08-25T21:59:41.346Z,55.51
2022-08-25T22:02:13.240Z,55.50
2022-08-25T22:04:42.111Z,55.52
2022-08-25T22:07:11.120Z,55.27
2022-08-25T22:09:40.058Z,55.52
2022-08-25T22:12:10.996Z,55.16
2022-08-25T22:14:38.849Z,55.18
2022-08-25T22:17:09.938Z,54.84
2022-08-25T22:19:39.593Z,54.73
2022-08-25T22:22:06.948Z,54.67
2022-08-25T22:24:34.563Z,54.33
2022-08-25T22:27:01.999Z,54.49
2022-08-25T22:29:29.330Z,54.36
2022-08-25T22:32:02.257Z,54.46
2022-08-25T22:34:34.505Z,54.63
2022-08-25T22:37:03.849Z,54.46
2022-08-25T22:39:32.414Z,54.25
2022-08-25T22:42:02.980Z,54.51
2022-08-25T22:44:30.828Z,54.32
2022-08-25T22:46:58.093Z,54.42
2022-08-25T22:49:28.497Z,54.61
2022-08-25T22:51:56.112Z,54.16
2022-08-25T22:54:23.909Z,54.23
2022-08-25T22:56:53.433Z,54.22
2022-08-25T22:59:22.442Z,54.35
2022-08-25T23:01:52.441Z,54.51
2022-08-25T23:04:19.933Z,54.17
2022-08-25T23:06:47.701Z,54.42
2022-08-25T23:09:15.086Z,54.61
2022-08-25T23:11:43.430Z,54.24
2022-08-25T23:14:11.943Z,54.45
2022-08-25T23:16:41.840Z,54.77
2022-08-25T23:19:10.671Z,54.52
2022-08-25T23:21:56.972Z,54.38
2022-08-25T23:24:29.342Z,54.39
2022-08-25T23:26:59.404Z,54.47
2022-08-25T23:29:27.767Z,54.54
2022-08-25T23:31:56.709Z,54.69
2022-08-25T23:34:25.126Z,54.51
2022-08-25T23:36:52.785Z,54.48
2022-08-25T23:39:21.890Z,54.60
2022-08-25T23:41:50.711Z,54.62
2022-08-25T23:44:18.930Z,54.54
2022-08-25T23:46:47.806Z,54.37
2022-08-25T23:49:19.824Z,54.10
2022-08-25T23:51:51.864Z,54.35
2022-08-25T23:54:20.778Z,54.16
2022-08-25T23:56:52.021Z,53.96
2022-08-25T23:59:24.236Z,54.27
